createdAt,value
2023-04-27T00:05:58.762Z,2.4
2023-04-27T00:08:02.243Z,2.4
2023-04-27T00:10:05.912Z,2.4
2023-04-27T00:12:12.626Z,2.3
2023-04-27T00:14:16.392Z,2.2
2023-04-27T00:20:27.716Z,2
2023-04-27T00:22:31.521Z,2
2023-04-27T00:24:35.318Z,1.9
2023-04-27T00:26:42.457Z,1.9
2023-04-27T00:28:46.229Z,1.9
2023-04-27T00:30:50.105Z,1.8
2023-04-27T00:32:53.817Z,1.8
2023-04-27T00:34:57.535Z,1.8
2023-04-27T00:37:01.210Z,1.9
2023-04-27T00:39:04.995Z,1.8
2023-04-27T00:41:11.606Z,1.8
2023-04-27T00:45:18.994Z,1.8
2023-04-27T00:47:22.730Z,1.8
2023-04-27T00:49:26.394Z,1.8
2023-04-27T00:51:30.166Z,1.8
2023-04-27T01:00:51.204Z,1.6
2023-04-27T01:04:58.616Z,1.6
2023-04-27T01:07:02.392Z,1.6
2023-04-27T01:11:12.758Z,1.5
2023-04-27T01:13:16.389Z,1.5
2023-04-27T01:15:20.123Z,1.4
2023-04-27T01:17:23.930Z,1.4
2023-04-27T01:19:27.594Z,1.3
2023-04-27T01:21:31.232Z,1.3
2023-04-27T01:25:41.536Z,1.2
2023-04-27T01:29:49.026Z,1.1
2023-04-27T01:31:52.751Z,1
2023-04-27T01:33:56.479Z,1
2023-04-27T01:36:00.198Z,1
2023-04-27T01:38:06.860Z,0.9
2023-04-27T01:40:10.612Z,0.9
2023-04-27T01:46:21.779Z,0.9
2023-04-27T01:48:25.390Z,0.8
2023-04-27T01:57:46.460Z,0.8
2023-04-27T01:59:50.147Z,0.8
2023-04-27T02:03:57.843Z,0.9
2023-04-27T02:06:04.104Z,0.9
2023-04-27T02:08:07.831Z,0.9
2023-04-27T02:10:11.522Z,0.9
2023-04-27T02:12:15.251Z,0.9
2023-04-27T02:14:18.957Z,0.9
2023-04-27T02:16:22.768Z,0.9
2023-04-27T02:18:26.338Z,0.9
2023-04-27T02:20:32.903Z,0.9
2023-04-27T02:28:47.514Z,0.9
2023-04-27T02:30:51.195Z,0.9
2023-04-27T02:35:01.464Z,0.8
2023-04-27T02:37:05.205Z,0.8
2023-04-27T02:41:12.453Z,0.7
2023-04-27T02:47:24.371Z,0.6
2023-04-27T02:49:30.990Z,0.6
2023-04-27T02:51:34.699Z,0.5
2023-04-27T02:53:38.379Z,0.5
2023-04-27T02:58:49.102Z,0.5
2023-04-27T03:07:06.896Z,0.8
2023-04-27T03:09:10.638Z,0.8
2023-04-27T03:11:14.253Z,0.8
2023-04-27T03:19:31.769Z,0.7
2023-04-27T03:21:35.449Z,0.6
2023-04-27T03:23:39.160Z,0.6
2023-04-27T03:25:42.825Z,0.5
2023-04-27T03:27:46.417Z,0.5
2023-04-27T03:29:50.064Z,0.4
2023-04-27T03:31:58.190Z,0.4
2023-04-27T03:34:01.695Z,0.3
2023-04-27T03:36:05.408Z,0.3
2023-04-27T03:40:12.601Z,0.2
2023-04-27T03:44:19.850Z,0.2
2023-04-27T03:46:26.459Z,0.2
2023-04-27T03:52:57.554Z,0.1
2023-04-27T03:55:01.288Z,0.1
2023-04-27T03:57:04.926Z,0.1
2023-04-27T03:59:11.721Z,0
2023-04-27T04:01:15.149Z,0
2023-04-27T04:03:19.120Z,-0.1
2023-04-27T04:05:22.538Z,-0.1
2023-04-27T04:07:26.112Z,-0.1
2023-04-27T04:09:29.655Z,-0.2
2023-04-27T04:11:33.346Z,-0.2
2023-04-27T04:13:39.976Z,-0.2
2023-04-27T04:15:43.702Z,-0.2
2023-04-27T04:17:47.321Z,-0.2
2023-04-27T04:19:50.927Z,-0.2
2023-04-27T04:21:54.641Z,-0.1
2023-04-27T04:23:58.304Z,-0.1
2023-04-27T04:26:01.888Z,-0.1
2023-04-27T04:28:08.484Z,-0.1
2023-04-27T04:30:12.058Z,-0.1
2023-04-27T04:32:15.720Z,-0.1
2023-04-27T04:34:19.316Z,0
2023-04-27T04:36:22.975Z,0
2023-04-27T04:38:26.669Z,0.1
2023-04-27T04:42:36.947Z,0.1
2023-04-27T04:44:40.601Z,0.2
2023-04-27T04:46:44.287Z,0.2
2023-04-27T04:47:47.639Z,0.3
2023-04-27T04:49:51.230Z,0.3
2023-04-27T04:56:05.007Z,0.7
2023-04-27T05:02:15.977Z,3.8
2023-04-27T05:06:23.367Z,3.3
2023-04-27T05:12:37.412Z,5.1
2023-04-27T05:27:06.463Z,6.6
2023-04-27T05:29:10.126Z,7.7
2023-04-27T05:31:13.892Z,8.3
2023-04-27T05:33:17.569Z,9.1
2023-04-27T05:35:21.333Z,9
2023-04-27T05:37:25.098Z,9.5
2023-04-27T05:39:31.673Z,6.5
2023-04-27T05:41:35.478Z,5.9
2023-04-27T05:43:39.343Z,6
2023-04-27T05:44:42.629Z,6.7
2023-04-27T05:46:46.450Z,7.3
2023-04-27T05:48:50.376Z,7
2023-04-27T05:50:54.166Z,5.4
2023-04-27T05:57:08.380Z,4
2023-04-27T05:59:12.486Z,3.9
2023-04-27T06:01:15.990Z,3.8
2023-04-27T06:11:37.713Z,4.2
2023-04-27T06:13:41.506Z,4.3
2023-04-27T06:15:45.279Z,4.4
2023-04-27T06:17:49.084Z,4.6
2023-04-27T06:21:59.365Z,4.9
2023-04-27T06:24:03.118Z,4.8
2023-04-27T06:26:06.879Z,4.9
2023-04-27T06:28:10.650Z,5.1
2023-04-27T06:30:14.393Z,5.3
2023-04-27T06:32:18.137Z,5.4
2023-04-27T06:34:21.910Z,5.4
2023-04-27T06:41:39.290Z,5.7
2023-04-27T06:43:43.059Z,5.8
2023-04-27T06:47:50.585Z,6
2023-04-27T06:49:57.141Z,6
2023-04-27T06:52:00.921Z,6.1
2023-04-27T06:54:04.672Z,6.3
2023-04-27T06:56:08.437Z,6.4
2023-04-27T07:00:16.016Z,6.6
2023-04-27T07:04:26.652Z,7.2
2023-04-27T07:06:30.193Z,7.7
2023-04-27T07:08:34.003Z,9
2023-04-27T07:10:37.795Z,10
2023-04-27T07:12:41.639Z,10.4
2023-04-27T07:14:45.484Z,11.1
2023-04-27T07:16:49.304Z,10.7
2023-04-27T07:18:56.000Z,11.4
2023-04-27T07:20:59.864Z,11.2
2023-04-27T07:23:03.727Z,11.1
2023-04-27T07:25:07.655Z,11.4
2023-04-27T07:27:11.483Z,11.2
2023-04-27T07:29:26.470Z,10.5
2023-04-27T07:33:25.998Z,10.9
2023-04-27T07:35:29.898Z,10.6
2023-04-27T07:37:33.808Z,10.9
2023-04-27T07:40:03.424Z,10
2023-04-27T07:42:07.339Z,10.2
2023-04-27T07:46:18.048Z,10.1
2023-04-27T07:48:21.909Z,10.3
2023-04-27T07:50:25.977Z,10.6
2023-04-27T07:52:29.725Z,10.3
2023-04-27T07:54:33.659Z,10
2023-04-27T07:56:37.607Z,10
2023-04-27T07:58:41.473Z,10.6
2023-04-27T08:00:48.205Z,10.7
2023-04-27T08:07:00.557Z,9.7
2023-04-27T08:09:03.973Z,9.5
2023-04-27T08:27:42.006Z,9.6
2023-04-27T08:31:53.790Z,10.3
2023-04-27T08:33:56.616Z,10.5
2023-04-27T08:34:59.994Z,10.5
2023-04-27T08:39:07.860Z,10.9
2023-04-27T08:41:21.487Z,10.8
2023-04-27T08:43:18.493Z,10.6
2023-04-27T08:45:22.447Z,10.5
2023-04-27T08:47:39.018Z,10.3
2023-04-27T08:49:30.284Z,10.4
2023-04-27T08:51:34.211Z,10.6
2023-04-27T08:53:38.120Z,11.2
2023-04-27T08:55:42.049Z,11.1
2023-04-27T08:57:48.805Z,11.6
2023-04-27T08:59:52.738Z,11.6
2023-04-27T09:01:56.721Z,11.6
2023-04-27T09:04:00.839Z,11.3
2023-04-27T09:06:06.043Z,11.5
2023-04-27T09:08:08.468Z,11.8
2023-04-27T09:10:12.414Z,11.2
2023-04-27T09:12:19.190Z,11.1
2023-04-27T09:16:27.123Z,11.8
2023-04-27T09:18:30.939Z,11.7
2023-04-27T09:24:42.744Z,11.4
2023-04-27T09:26:51.045Z,11.5
2023-04-27T09:28:54.930Z,11.7
2023-04-27T09:32:02.316Z,11.4
2023-04-27T09:34:06.172Z,11.7
2023-04-27T09:36:10.123Z,11.7
2023-04-27T09:44:28.627Z,11.5
2023-04-27T09:46:32.599Z,11.8
2023-04-27T09:58:58.969Z,12.7
2023-04-27T10:01:02.923Z,12.8
2023-04-27T10:03:06.863Z,11.9
2023-04-27T10:05:10.804Z,11.9
2023-04-27T10:07:14.685Z,11.4
2023-04-27T10:09:21.426Z,12
2023-04-27T10:11:25.344Z,12.2
2023-04-27T10:13:29.291Z,12.9
2023-04-27T10:15:33.201Z,12.3
2023-04-27T10:17:37.176Z,12.6
2023-04-27T10:19:41.086Z,12.7
2023-04-27T10:21:44.986Z,12.2
2023-04-27T10:23:51.831Z,12
2023-04-27T10:25:55.733Z,11.7
2023-04-27T10:27:59.645Z,11.8
2023-04-27T10:31:06.955Z,12.4
2023-04-27T10:35:14.784Z,12
2023-04-27T10:37:21.513Z,12.7
2023-04-27T10:51:51.854Z,12.9
2023-04-27T10:53:55.802Z,13.4
2023-04-27T10:55:59.716Z,12.7
2023-04-27T10:58:03.671Z,12.4
2023-04-27T11:00:07.604Z,12.7
2023-04-27T11:02:11.537Z,12.9
2023-04-27T11:06:22.212Z,13.3
2023-04-27T11:08:26.150Z,13.4
2023-04-27T11:14:37.928Z,13
2023-04-27T11:20:52.586Z,14.5
2023-04-27T11:27:30.092Z,13.9
2023-04-27T11:29:34.706Z,14
2023-04-27T11:31:38.022Z,13.2
2023-04-27T11:33:44.716Z,13.7
2023-04-27T11:35:48.658Z,13.7
2023-04-27T11:37:52.610Z,14
2023-04-27T11:39:56.525Z,14.4
2023-04-27T11:42:00.471Z,14.8
2023-04-27T11:44:04.393Z,15.7
2023-04-27T11:46:08.354Z,16.3
2023-04-27T11:48:15.116Z,15.5
2023-04-27T11:50:19.038Z,15.3
2023-04-27T11:52:22.976Z,15.5
2023-04-27T11:54:26.895Z,15.8
2023-04-27T11:56:30.841Z,15.7
2023-04-27T11:58:34.766Z,15
2023-04-27T12:00:38.677Z,15
2023-04-27T12:02:45.611Z,15.6
2023-04-27T12:04:49.558Z,15.3
2023-04-27T12:06:53.328Z,15.3
2023-04-27T12:08:57.257Z,15
2023-04-27T12:11:01.188Z,16.5
2023-04-27T12:13:05.124Z,16.9
2023-04-27T12:15:09.110Z,15.7
2023-04-27T12:17:15.824Z,15.3
2023-04-27T12:19:19.753Z,15.2
2023-04-27T12:21:23.692Z,15.4
2023-04-27T12:26:34.923Z,15.4
2023-04-27T12:28:38.864Z,16
2023-04-27T12:30:45.645Z,16.9
2023-04-27T12:32:49.576Z,17.3
2023-04-27T12:34:53.452Z,19
2023-04-27T12:41:05.275Z,16.7
2023-04-27T12:47:40.586Z,16.7
2023-04-27T12:59:46.300Z,16.5
2023-04-27T13:14:16.908Z,15.5
2023-04-27T13:16:20.655Z,15.1
2023-04-27T13:19:27.888Z,15
2023-04-27T13:21:31.861Z,15.1
2023-04-27T13:23:35.756Z,15.1
2023-04-27T13:25:39.705Z,14.8
2023-04-27T13:27:46.474Z,14.6
2023-04-27T13:29:50.441Z,14.6
2023-04-27T13:31:54.490Z,14.6
2023-04-27T13:33:58.300Z,14
2023-04-27T13:36:02.272Z,14.2
2023-04-27T13:38:06.194Z,14
2023-04-27T13:40:10.177Z,13.9
2023-04-27T13:42:16.903Z,14.7
2023-04-27T13:44:20.829Z,14.8
2023-04-27T13:46:24.780Z,14.9
2023-04-27T13:48:28.721Z,15.6
2023-04-27T13:50:32.623Z,15.5
2023-04-27T13:52:36.593Z,14.9
2023-04-27T13:54:40.542Z,14.8
2023-04-27T13:56:47.325Z,14.6
2023-04-27T13:58:51.226Z,14.6
2023-04-27T14:02:59.186Z,14.5
2023-04-27T14:07:06.969Z,14.8
2023-04-27T14:09:10.922Z,14.8
2023-04-27T14:11:17.668Z,15.1
2023-04-27T14:15:25.549Z,14.3
2023-04-27T14:16:28.937Z,14.4
2023-04-27T14:33:03.431Z,14.5
2023-04-27T14:35:07.172Z,14.6
2023-04-27T14:37:11.100Z,14.5
2023-04-27T14:41:21.810Z,14.2
2023-04-27T14:43:25.760Z,14.2
2023-04-27T14:47:33.651Z,14.8
2023-04-27T14:51:43.453Z,14.6
2023-04-27T14:53:48.258Z,13.7
2023-04-27T14:57:56.165Z,13.8
2023-04-27T15:00:00.139Z,14.2
2023-04-27T15:02:04.045Z,14.5
2023-04-27T15:04:08.134Z,14.5
2023-04-27T15:12:26.536Z,13.9
2023-04-27T15:17:00.124Z,14
2023-04-27T15:19:04.029Z,14.3
2023-04-27T15:25:20.147Z,14.5
2023-04-27T15:27:24.103Z,14.5
2023-04-27T15:33:35.871Z,14.5
2023-04-27T15:35:42.617Z,14.4
2023-04-27T15:37:46.580Z,14.5
2023-04-27T15:43:58.396Z,14
2023-04-27T15:48:06.280Z,14.1
2023-04-27T15:50:13.023Z,14
2023-04-27T15:52:16.953Z,13.9
2023-04-27T15:54:20.910Z,13.9
2023-04-27T15:56:24.796Z,14.1
2023-04-27T15:58:28.737Z,14.1
2023-04-27T16:00:32.725Z,13.8
2023-04-27T16:02:36.705Z,13.7
2023-04-27T16:04:43.371Z,13.5
2023-04-27T16:06:47.313Z,13.6
2023-04-27T16:08:51.252Z,13.8
2023-04-27T16:09:54.671Z,13.9
2023-04-27T16:14:02.498Z,13.7
2023-04-27T16:16:06.451Z,13.7
2023-04-27T16:20:17.117Z,13.5
2023-04-27T16:22:21.063Z,13.3
2023-04-27T16:24:25.020Z,13.3
2023-04-27T16:26:28.924Z,13.5
2023-04-27T16:28:32.848Z,13.7
2023-04-27T16:30:36.791Z,13.6
2023-04-27T16:32:43.601Z,13.7
2023-04-27T16:34:47.459Z,13.5
2023-04-27T16:36:51.397Z,13.5
2023-04-27T16:38:55.316Z,13.7
2023-04-27T16:40:59.280Z,13.5
2023-04-27T16:43:03.181Z,13.6
2023-04-27T16:45:09.140Z,13.6
2023-04-27T16:47:14.001Z,13.4
2023-04-27T16:49:17.777Z,13.4
2023-04-27T16:51:21.721Z,13.3
2023-04-27T16:59:37.440Z,13.1
2023-04-27T17:01:44.245Z,13
2023-04-27T17:03:48.183Z,13
2023-04-27T17:05:52.050Z,13
2023-04-27T17:06:55.415Z,12.9
2023-04-27T17:08:59.349Z,12.9
2023-04-27T17:11:03.259Z,13
2023-04-27T17:17:17.891Z,12.8
2023-04-27T17:25:33.589Z,12.7
2023-04-27T17:27:37.515Z,12.6
2023-04-27T17:29:44.267Z,12.7
2023-04-27T17:31:48.329Z,12.7
2023-04-27T17:35:56.062Z,12.7
2023-04-27T17:44:14.616Z,12.5
2023-04-27T17:50:26.348Z,12.5
2023-04-27T17:58:44.860Z,12.2
2023-04-27T18:00:48.791Z,12.3
2023-04-27T18:02:52.847Z,12.3
2023-04-27T18:03:56.145Z,12.2
2023-04-27T18:05:59.988Z,12.2
2023-04-27T18:08:03.905Z,12.1
2023-04-27T18:10:07.818Z,12.1
2023-04-27T18:12:14.588Z,12.1
2023-04-27T18:14:18.497Z,12.1
2023-04-27T18:16:22.548Z,12
2023-04-27T18:18:26.322Z,12
2023-04-27T18:20:30.209Z,11.9
2023-04-27T18:22:34.188Z,11.9
2023-04-27T18:24:38.111Z,11.8
2023-04-27T18:26:44.841Z,11.8
2023-04-27T18:28:48.771Z,11.8
2023-04-27T18:30:52.690Z,11.8
2023-04-27T18:32:56.627Z,11.7
2023-04-27T18:35:00.529Z,11.7
2023-04-27T18:37:04.422Z,11.7
2023-04-27T18:39:08.346Z,11.7
2023-04-27T18:41:15.069Z,11.7
2023-04-27T18:43:18.993Z,11.7
2023-04-27T18:45:22.923Z,11.7
2023-04-27T18:47:26.829Z,11.6
2023-04-27T18:51:34.634Z,11.4
2023-04-27T18:59:53.048Z,11.4
2023-04-27T19:02:22.828Z,11.4
2023-04-27T19:04:26.738Z,11.4
2023-04-27T19:06:30.538Z,11.3
2023-04-27T19:12:45.091Z,11.2
2023-04-27T19:21:00.700Z,11.1
2023-04-27T19:39:41.427Z,10.9
2023-04-27T19:41:45.349Z,10.9
2023-04-27T19:54:11.594Z,10.7
2023-04-27T19:57:18.848Z,10.7
2023-04-27T19:59:22.772Z,10.7
2023-04-27T20:01:26.705Z,10.7
2023-04-27T20:03:30.819Z,10.7
2023-04-27T20:07:41.233Z,10.6
2023-04-27T20:09:45.145Z,10.6
2023-04-27T20:11:49.073Z,10.6
2023-04-27T20:15:56.994Z,10.5
2023-04-27T20:18:00.917Z,10.5
2023-04-27T20:20:08.005Z,10.4
2023-04-27T20:22:11.913Z,10.4
2023-04-27T20:24:16.148Z,10.3
2023-04-27T20:26:19.701Z,10.4
2023-04-27T20:28:23.626Z,10.4
2023-04-27T20:30:27.502Z,10.3
2023-04-27T20:32:31.752Z,10.3
2023-04-27T20:36:42.352Z,10.2
2023-04-27T20:38:46.321Z,10.2
2023-04-27T20:40:50.164Z,10.2
2023-04-27T20:47:01.842Z,10.1
2023-04-27T20:51:12.448Z,10
2023-04-27T20:54:19.707Z,10
2023-04-27T20:58:27.502Z,10
2023-04-27T21:00:31.407Z,10
2023-04-27T21:02:38.242Z,10
2023-04-27T21:04:42.107Z,10
2023-04-27T21:06:45.933Z,10
2023-04-27T21:08:49.816Z,10
2023-04-27T21:10:53.720Z,10
2023-04-27T21:12:57.605Z,10
2023-04-27T21:15:01.510Z,10
2023-04-27T21:17:08.255Z,10
2023-04-27T21:19:12.095Z,10
2023-04-27T21:21:17.473Z,10
2023-04-27T21:23:21.353Z,9.9
2023-04-27T21:27:29.113Z,9.9
2023-04-27T21:29:33.017Z,9.9
2023-04-27T21:31:39.820Z,9.8
2023-04-27T21:33:43.609Z,9.8
2023-04-27T21:35:47.516Z,9.8
2023-04-27T21:37:51.426Z,9.8
2023-04-27T21:41:59.177Z,9.7
2023-04-27T21:44:03.100Z,9.7
2023-04-27T21:46:09.847Z,9.7
2023-04-27T22:01:43.209Z,9.6
2023-04-27T22:07:54.966Z,9.6
2023-04-27T22:09:58.815Z,9.6
2023-04-27T22:12:02.706Z,9.6
2023-04-27T22:14:09.420Z,9.6
2023-04-27T22:16:14.024Z,9.5
2023-04-27T22:20:21.094Z,9.5
2023-04-27T22:22:24.952Z,9.5
2023-04-27T22:26:32.724Z,9.5
2023-04-27T22:30:43.303Z,9.4
2023-04-27T22:32:47.225Z,9.4
2023-04-27T22:34:51.032Z,9.4
2023-04-27T22:36:54.941Z,9.4
2023-04-27T22:38:58.837Z,9.4
2023-04-27T22:41:02.673Z,9.4
2023-04-27T22:43:09.363Z,9.4
2023-04-27T22:45:13.262Z,9.3
2023-04-27T22:47:17.116Z,9.4
2023-04-27T22:49:46.781Z,9.4
2023-04-27T22:51:50.640Z,9.4
2023-04-27T22:53:54.523Z,9.4
2023-04-27T22:56:01.230Z,9.3
2023-04-27T22:58:05.142Z,9.3
2023-04-27T23:02:12.897Z,9.3
2023-04-27T23:06:20.624Z,9.3
2023-04-27T23:10:31.292Z,9.4
2023-04-27T23:25:01.193Z,9.2
2023-04-27T23:41:35.052Z,9.1
2023-04-27T23:43:38.931Z,9.1
2023-04-27T23:44:42.301Z,9.1
2023-04-27T23:50:53.931Z,9
2023-04-27T23:53:00.630Z,9
